createdAt,value
2023-03-13T00:01:28.404Z,15.40
2023-03-13T00:03:56.620Z,15.30
2023-03-13T00:06:27.556Z,12.00
2023-03-13T00:08:56.163Z,14.80
2023-03-13T00:11:24.173Z,16.80
2023-03-13T00:14:00.266Z,13.50
2023-03-13T00:16:28.844Z,16.10
2023-03-13T00:18:58.065Z,17.10
2023-03-13T00:21:29.634Z,16.40
2023-03-13T00:23:59.902Z,14.00
2023-03-13T00:26:29.535Z,15.90
2023-03-13T00:28:57.783Z,15.50
2023-03-13T00:31:29.842Z,14.80
2023-03-13T00:34:01.166Z,15.30
2023-03-13T00:36:32.339Z,20.40
2023-03-13T00:39:01.096Z,18.60
2023-03-13T00:41:31.789Z,16.10
2023-03-13T00:44:00.081Z,17.90
2023-03-13T00:46:30.191Z,16.00
2023-03-13T00:48:58.531Z,18.10
2023-03-13T00:51:27.762Z,17.00
2023-03-13T00:53:57.255Z,17.60
2023-03-13T00:56:25.420Z,16.10
2023-03-13T00:58:54.450Z,17.80
2023-03-13T01:01:24.681Z,15.70
2023-03-13T01:04:03.213Z,17.30
2023-03-13T01:06:34.059Z,15.50
2023-03-13T01:09:03.968Z,18.00
2023-03-13T01:11:35.474Z,17.00
2023-03-13T01:14:10.766Z,21.00
2023-03-13T01:16:39.813Z,19.10
2023-03-13T01:19:13.293Z,17.40
2023-03-13T01:21:43.666Z,18.20
2023-03-13T01:24:12.015Z,16.10
2023-03-13T01:26:40.230Z,16.70
2023-03-13T01:29:08.371Z,20.60
2023-03-13T01:31:36.893Z,17.20
2023-03-13T01:34:06.501Z,16.90
2023-03-13T01:36:37.256Z,16.60
2023-03-13T01:39:06.382Z,18.80
2023-03-13T01:41:34.360Z,17.50
2023-03-13T01:44:02.322Z,17.80
2023-03-13T01:46:30.857Z,18.40
2023-03-13T01:49:10.352Z,18.20
2023-03-13T01:51:51.818Z,18.40
2023-03-13T01:54:37.764Z,16.50
2023-03-13T01:57:27.766Z,20.50
2023-03-13T02:00:14.194Z,17.30
2023-03-13T02:02:47.618Z,17.50
2023-03-13T02:05:17.739Z,17.80
2023-03-13T02:07:49.969Z,17.70
2023-03-13T02:10:18.990Z,18.70
2023-03-13T02:12:47.145Z,18.30
2023-03-13T02:15:20.650Z,20.80
2023-03-13T02:17:50.569Z,17.30
2023-03-13T02:20:23.350Z,17.60
2023-03-13T02:25:55.013Z,17.80
2023-03-13T02:28:35.077Z,15.60
2023-03-13T02:31:03.191Z,16.50
2023-03-13T02:33:37.414Z,16.00
2023-03-13T02:36:06.203Z,16.90
2023-03-13T02:38:51.109Z,15.00
2023-03-13T02:41:19.783Z,14.50
2023-03-13T02:43:47.721Z,15.90
2023-03-13T02:46:21.220Z,18.00
2023-03-13T02:48:52.960Z,17.10
2023-03-13T02:51:40.038Z,18.90
2023-03-13T02:54:17.664Z,16.70
2023-03-13T02:56:50.295Z,16.40
2023-03-13T02:59:18.359Z,15.90
2023-03-13T03:01:46.493Z,15.90
2023-03-13T03:04:14.617Z,15.30
2023-03-13T03:06:42.622Z,15.30
2023-03-13T03:09:10.535Z,14.40
2023-03-13T03:11:38.726Z,15.10
2023-03-13T03:14:07.551Z,9.60
2023-03-13T03:16:35.491Z,11.30
2023-03-13T03:19:04.670Z,12.20
2023-03-13T03:21:34.013Z,12.10
2023-03-13T03:24:02.117Z,13.30
2023-03-13T03:26:34.851Z,14.20
2023-03-13T03:31:31.050Z,9.90
2023-03-13T03:33:58.957Z,13.30
2023-03-13T03:36:27.057Z,13.60
2023-03-13T03:38:55.343Z,12.00
2023-03-13T03:41:23.466Z,14.20
2023-03-13T03:43:51.520Z,10.90
2023-03-13T03:46:19.565Z,10.00
2023-03-13T03:48:47.848Z,10.60
2023-03-13T03:51:16.887Z,10.70
2023-03-13T03:53:45.281Z,10.80
2023-03-13T03:56:13.387Z,10.60
2023-03-13T03:58:41.391Z,8.50
2023-03-13T04:01:09.498Z,9.00
2023-03-13T04:03:37.537Z,8.50
2023-03-13T04:06:07.106Z,14.30
2023-03-13T04:08:34.952Z,12.00
2023-03-13T04:11:03.026Z,10.10
2023-03-13T04:13:31.016Z,13.20
2023-03-13T04:15:59.115Z,11.10
2023-03-13T04:18:27.029Z,11.80
2023-03-13T04:21:06.152Z,14.20
2023-03-13T04:23:34.121Z,10.30
2023-03-13T04:26:02.101Z,13.80
2023-03-13T04:28:29.997Z,14.00
2023-03-13T04:30:58.419Z,16.70
2023-03-13T04:33:26.528Z,18.20
2023-03-13T04:35:54.699Z,15.70
2023-03-13T04:38:23.357Z,14.50
2023-03-13T04:40:51.485Z,17.70
2023-03-13T04:43:19.507Z,20.60
2023-03-13T04:45:47.662Z,19.20
2023-03-13T04:48:15.764Z,27.50
2023-03-13T04:50:43.781Z,18.40
2023-03-13T04:53:11.823Z,18.10
2023-03-13T04:55:39.821Z,11.50
2023-03-13T04:58:07.799Z,15.90
2023-03-13T05:00:35.750Z,14.00
2023-03-13T05:03:03.710Z,16.80
2023-03-13T05:05:34.375Z,16.00
2023-03-13T05:08:02.812Z,13.60
2023-03-13T05:10:30.874Z,12.50
2023-03-13T05:12:58.853Z,13.60
2023-03-13T05:15:26.868Z,12.90
2023-03-13T05:17:54.918Z,15.90
2023-03-13T05:20:23.024Z,13.80
2023-03-13T05:22:51.166Z,13.80
2023-03-13T05:25:19.115Z,20.40
2023-03-13T05:27:47.176Z,16.30
2023-03-13T05:30:15.393Z,21.50
2023-03-13T05:32:43.495Z,18.10
2023-03-13T05:35:11.467Z,15.10
2023-03-13T05:37:41.439Z,18.30
2023-03-13T05:40:10.688Z,14.60
2023-03-13T05:42:39.558Z,17.90
2023-03-13T05:45:11.704Z,10.70
2023-03-13T05:47:39.909Z,16.30
2023-03-13T05:50:09.388Z,19.20
2023-03-13T05:52:37.451Z,16.50
2023-03-13T05:55:06.162Z,14.90
2023-03-13T05:57:34.086Z,17.70
2023-03-13T06:00:03.577Z,18.90
2023-03-13T06:02:31.718Z,16.60
2023-03-13T06:04:59.773Z,14.80
2023-03-13T06:07:27.806Z,19.60
2023-03-13T06:09:55.700Z,17.80
2023-03-13T06:12:23.650Z,19.10
2023-03-13T06:14:51.650Z,29.50
2023-03-13T06:17:19.619Z,18.30
2023-03-13T06:19:47.759Z,18.50
2023-03-13T06:22:17.234Z,18.00
2023-03-13T06:24:46.904Z,14.50
2023-03-13T06:27:15.501Z,18.00
2023-03-13T06:29:43.642Z,15.10
2023-03-13T06:32:12.103Z,19.20
2023-03-13T06:34:40.134Z,15.80
2023-03-13T06:37:08.371Z,16.40
2023-03-13T06:39:36.363Z,12.00
2023-03-13T06:42:05.154Z,19.10
2023-03-13T06:44:33.571Z,13.40
2023-03-13T06:47:02.771Z,16.00
2023-03-13T06:49:31.619Z,11.70
2023-03-13T06:51:59.835Z,16.50
2023-03-13T06:54:28.066Z,11.70
2023-03-13T06:56:58.613Z,15.30
2023-03-13T06:59:26.687Z,17.30
2023-03-13T07:01:54.963Z,17.00
2023-03-13T07:04:31.134Z,20.20
2023-03-13T07:06:59.165Z,20.70
2023-03-13T07:09:27.301Z,15.80
2023-03-13T07:11:58.046Z,19.30
2023-03-13T07:14:26.122Z,17.60
2023-03-13T07:16:54.330Z,22.00
2023-03-13T07:19:22.401Z,18.20
2023-03-13T07:21:50.451Z,15.70
2023-03-13T07:27:01.884Z,20.30
2023-03-13T07:29:32.688Z,15.50
2023-03-13T07:32:00.779Z,15.20
2023-03-13T07:34:28.985Z,14.20
2023-03-13T07:36:56.999Z,14.60
2023-03-13T07:39:26.212Z,18.90
2023-03-13T07:41:54.176Z,22.50
2023-03-13T07:44:22.178Z,17.60
2023-03-13T07:46:50.366Z,19.50
2023-03-13T07:49:18.529Z,19.80
2023-03-13T07:51:48.225Z,17.20
2023-03-13T07:54:16.494Z,15.90
2023-03-13T07:56:44.598Z,17.50
2023-03-13T07:59:12.653Z,17.00
2023-03-13T08:01:49.715Z,6.70
2023-03-13T08:04:17.734Z,18.70
2023-03-13T08:06:45.827Z,15.30
2023-03-13T08:09:13.798Z,24.10
2023-03-13T08:11:42.576Z,24.90
2023-03-13T08:14:11.036Z,13.20
2023-03-13T08:16:41.692Z,22.80
2023-03-13T08:19:11.438Z,25.30
2023-03-13T08:21:39.835Z,21.10
2023-03-13T08:24:11.501Z,17.40
2023-03-13T08:26:41.859Z,20.50
2023-03-13T08:29:15.098Z,19.60
2023-03-13T08:31:47.616Z,16.20
2023-03-13T08:36:45.923Z,24.10
2023-03-13T08:39:18.695Z,18.50
2023-03-13T08:44:20.669Z,19.30
2023-03-13T08:46:49.605Z,12.40
2023-03-13T08:49:17.987Z,21.60
2023-03-13T08:51:48.801Z,17.70
2023-03-13T08:54:16.843Z,15.50
2023-03-13T08:56:45.264Z,19.50
2023-03-13T08:59:15.548Z,15.00
2023-03-13T09:01:43.608Z,20.50
2023-03-13T09:04:11.575Z,15.90
2023-03-13T09:06:39.633Z,14.10
2023-03-13T09:09:08.602Z,14.10
2023-03-13T09:11:41.308Z,16.40
2023-03-13T09:16:38.583Z,19.80
2023-03-13T09:19:06.677Z,21.50
2023-03-13T09:24:05.494Z,18.40
2023-03-13T09:26:33.897Z,21.70
2023-03-13T09:29:01.953Z,19.20
2023-03-13T09:31:34.421Z,17.70
2023-03-13T09:34:03.197Z,22.30
2023-03-13T09:36:31.606Z,19.00
2023-03-13T09:39:00.829Z,22.20
2023-03-13T09:41:52.621Z,19.20
2023-03-13T09:44:21.333Z,19.70
2023-03-13T09:47:16.550Z,22.20
2023-03-13T09:49:51.355Z,6.20
2023-03-13T09:52:34.056Z,22.00
2023-03-13T09:55:11.172Z,20.00
2023-03-13T09:58:06.726Z,18.90
2023-03-13T10:00:43.563Z,20.60
2023-03-13T10:03:27.160Z,23.70
2023-03-13T10:06:23.301Z,16.20
2023-03-13T10:08:52.930Z,23.60
2023-03-13T10:11:46.568Z,15.80
2023-03-13T10:14:30.991Z,20.90
2023-03-13T10:17:19.688Z,20.80
2023-03-13T10:19:55.000Z,25.70
2023-03-13T10:22:27.661Z,16.90
2023-03-13T10:25:18.636Z,26.40
2023-03-13T10:27:51.248Z,22.40
2023-03-13T10:30:39.666Z,20.70
2023-03-13T10:35:42.326Z,22.40
2023-03-13T10:38:20.478Z,20.20
2023-03-13T10:41:02.112Z,18.00
2023-03-13T10:43:30.273Z,23.90
2023-03-13T10:45:59.458Z,20.30
2023-03-13T10:51:16.548Z,19.40
2023-03-13T10:53:44.897Z,23.10
2023-03-13T10:56:17.764Z,29.70
2023-03-13T10:58:51.237Z,22.40
2023-03-13T11:01:37.744Z,23.90
2023-03-13T11:04:35.092Z,20.80
2023-03-13T11:07:25.912Z,20.30
2023-03-13T11:10:56.947Z,16.80
2023-03-13T11:13:43.465Z,16.20
2023-03-13T11:16:23.105Z,18.20
2023-03-13T11:19:16.744Z,13.80
2023-03-13T11:22:03.412Z,18.30
2023-03-13T11:24:50.622Z,16.60
2023-03-13T11:27:43.686Z,26.60
2023-03-13T11:30:49.762Z,18.70
2023-03-13T11:33:47.507Z,14.60
2023-03-13T11:36:35.751Z,18.50
2023-03-13T11:39:11.649Z,14.30
2023-03-13T11:42:12.834Z,16.90
2023-03-13T11:45:01.523Z,15.20
2023-03-13T11:48:05.715Z,13.70
2023-03-13T11:50:47.521Z,15.30
2023-03-13T11:53:55.241Z,13.90
2023-03-13T11:56:32.288Z,20.50
2023-03-13T11:59:40.390Z,16.00
2023-03-13T12:02:35.022Z,14.80
2023-03-13T12:05:11.113Z,13.10
2023-03-13T12:08:05.211Z,15.60
2023-03-13T12:10:46.349Z,14.40
2023-03-13T12:13:23.589Z,11.20
2023-03-13T12:15:55.938Z,12.40
2023-03-13T12:18:41.309Z,13.60
2023-03-13T12:21:26.193Z,11.50
2023-03-13T12:24:33.188Z,12.60
2023-03-13T12:27:12.619Z,12.20
2023-03-13T12:29:56.503Z,10.70
2023-03-13T12:32:54.339Z,11.10
2023-03-13T12:35:29.768Z,14.10
2023-03-13T12:38:12.715Z,10.60
2023-03-13T12:43:33.090Z,11.80
2023-03-13T12:46:13.603Z,10.70
2023-03-13T12:49:35.333Z,18.50
2023-03-13T12:52:28.919Z,11.80
2023-03-13T12:55:36.965Z,12.60
2023-03-13T12:58:29.686Z,12.30
2023-03-13T13:01:03.496Z,8.80
2023-03-13T13:03:48.954Z,12.90
2023-03-13T13:06:17.835Z,10.70
2023-03-13T13:08:53.909Z,12.70
2023-03-13T13:11:33.997Z,12.60
2023-03-13T13:14:26.386Z,7.80
2023-03-13T13:17:39.509Z,12.60
2023-03-13T13:20:42.706Z,12.70
2023-03-13T13:23:24.556Z,16.10
2023-03-13T13:25:56.392Z,19.80
2023-03-13T13:28:34.830Z,15.60
2023-03-13T13:31:41.305Z,20.40
2023-03-13T13:34:36.150Z,21.60
2023-03-13T13:37:27.481Z,16.80
2023-03-13T13:40:30.487Z,19.30
2023-03-13T13:43:23.027Z,18.40
2023-03-13T13:46:24.640Z,14.40
2023-03-13T13:49:08.621Z,14.00
2023-03-13T13:51:39.659Z,16.00
2023-03-13T13:54:33.053Z,18.40
2023-03-13T13:57:46.275Z,12.50
2023-03-13T14:00:22.077Z,10.80
2023-03-13T14:02:56.130Z,18.70
2023-03-13T14:05:31.568Z,20.70
2023-03-13T14:08:20.244Z,13.60
2023-03-13T14:11:24.037Z,15.10
2023-03-13T14:14:11.966Z,22.70
2023-03-13T14:16:52.688Z,16.90
2023-03-13T14:19:40.949Z,22.80
2023-03-13T14:22:12.045Z,13.80
2023-03-13T14:27:17.524Z,14.50
2023-03-13T14:30:15.365Z,14.10
2023-03-13T14:32:46.461Z,11.40
2023-03-13T14:35:54.086Z,10.00
2023-03-13T14:38:36.015Z,10.90
2023-03-13T14:41:04.577Z,12.50
2023-03-13T14:43:42.747Z,11.50
2023-03-13T14:46:32.317Z,15.70
2023-03-13T14:49:25.928Z,13.40
2023-03-13T14:52:20.904Z,13.50
2023-03-13T14:55:07.049Z,11.40
2023-03-13T14:57:56.496Z,13.40
2023-03-13T15:00:46.477Z,10.40
2023-03-13T15:03:25.760Z,11.00
2023-03-13T15:06:04.477Z,11.30
2023-03-13T15:09:17.689Z,8.60
2023-03-13T15:11:56.729Z,10.00
2023-03-13T15:14:42.632Z,10.80
2023-03-13T15:17:25.693Z,7.60
2023-03-13T15:20:31.890Z,8.10
2023-03-13T15:24:31.720Z,7.20
2023-03-13T15:27:02.979Z,7.80
2023-03-13T15:29:53.238Z,6.70
2023-03-13T15:32:41.893Z,6.80
2023-03-13T15:35:40.533Z,7.60
2023-03-13T15:38:23.950Z,6.50
2023-03-13T15:41:27.538Z,9.00
2023-03-13T15:44:22.404Z,8.30
2023-03-13T15:46:52.633Z,10.00
2023-03-13T15:49:23.191Z,8.90
2023-03-13T15:51:51.928Z,10.40
2023-03-13T15:54:24.315Z,10.00
2023-03-13T15:56:55.512Z,8.90
2023-03-13T15:59:24.571Z,8.20
2023-03-13T16:01:53.141Z,12.70
2023-03-13T16:07:50.578Z,9.10
2023-03-13T16:10:29.421Z,10.00
2023-03-13T16:13:19.480Z,11.50
2023-03-13T16:15:49.125Z,8.20
2023-03-13T16:18:21.663Z,13.60
2023-03-13T16:23:35.835Z,9.60
2023-03-13T16:26:09.870Z,8.40
2023-03-13T16:28:37.959Z,8.40
2023-03-13T16:31:06.541Z,8.10
2023-03-13T16:33:34.641Z,10.90
2023-03-13T16:36:02.629Z,13.60
2023-03-13T16:38:30.563Z,10.40
2023-03-13T16:40:58.721Z,9.70
2023-03-13T16:43:26.822Z,8.90
2023-03-13T16:45:54.864Z,9.70
2023-03-13T16:48:24.266Z,10.40
2023-03-13T16:50:52.410Z,10.50
2023-03-13T16:53:20.517Z,11.80
2023-03-13T16:55:50.036Z,10.60
2023-03-13T16:58:18.386Z,13.50
2023-03-13T17:01:04.261Z,10.40
2023-03-13T17:03:33.569Z,9.80
2023-03-13T17:06:02.433Z,11.30
2023-03-13T17:08:30.789Z,9.40
2023-03-13T17:11:07.145Z,10.10
2023-03-13T17:13:35.596Z,11.30
2023-03-13T17:16:04.397Z,12.90
2023-03-13T17:18:32.983Z,13.00
2023-03-13T17:21:01.327Z,10.70
2023-03-13T17:23:29.817Z,11.40
2023-03-13T17:25:58.203Z,17.10
2023-03-13T17:28:26.633Z,13.50
2023-03-13T17:30:55.166Z,21.70
2023-03-13T17:33:23.689Z,20.80
2023-03-13T17:39:30.105Z,15.00
2023-03-13T17:42:00.169Z,13.90
2023-03-13T17:44:29.060Z,13.00
2023-03-13T17:46:57.733Z,14.20
2023-03-13T17:49:25.315Z,16.80
2023-03-13T17:51:52.685Z,12.20
2023-03-13T17:54:21.742Z,11.10
2023-03-13T17:57:01.064Z,10.40
2023-03-13T17:59:29.398Z,9.60
2023-03-13T18:01:59.129Z,8.40
2023-03-13T18:04:30.005Z,10.20
2023-03-13T18:06:57.230Z,10.60
2023-03-13T18:09:24.913Z,11.00
2023-03-13T18:11:55.028Z,13.90
2023-03-13T18:14:22.501Z,14.60
2023-03-13T18:16:51.066Z,8.90
2023-03-13T18:19:22.319Z,12.50
2023-03-13T18:21:53.541Z,11.40
2023-03-13T18:24:21.493Z,16.50
2023-03-13T18:26:52.702Z,13.60
2023-03-13T18:29:26.730Z,12.50
2023-03-13T18:31:59.778Z,15.20
2023-03-13T18:34:29.445Z,13.90
2023-03-13T18:37:03.429Z,15.10
2023-03-13T18:39:33.823Z,14.90
2023-03-13T18:42:01.987Z,20.50
2023-03-13T18:45:07.626Z,20.10
2023-03-13T18:47:36.534Z,14.80
2023-03-13T18:50:26.012Z,13.70
2023-03-13T18:52:55.731Z,13.30
2023-03-13T18:55:25.393Z,12.30
2023-03-13T18:57:53.268Z,15.10
2023-03-13T19:00:30.607Z,11.60
2023-03-13T19:02:58.527Z,12.20
2023-03-13T19:05:25.806Z,10.10
2023-03-13T19:07:52.820Z,16.50
2023-03-13T19:10:24.129Z,11.00
2023-03-13T19:12:52.709Z,9.40
2023-03-13T19:15:27.647Z,10.90
2023-03-13T19:18:19.412Z,11.50
2023-03-13T19:20:59.469Z,10.50
2023-03-13T19:23:28.252Z,16.10
2023-03-13T19:25:59.363Z,10.90
2023-03-13T19:28:28.659Z,10.50
2023-03-13T19:31:03.185Z,10.50
2023-03-13T19:33:38.715Z,12.00
2023-03-13T19:36:32.285Z,10.70
2023-03-13T19:39:00.827Z,12.60
2023-03-13T19:41:31.769Z,14.10
2023-03-13T19:44:02.464Z,10.90
2023-03-13T19:46:35.447Z,10.60
2023-03-13T19:49:04.205Z,11.90
2023-03-13T19:51:32.553Z,11.50
2023-03-13T19:54:00.811Z,11.40
2023-03-13T19:56:31.720Z,9.50
2023-03-13T19:59:08.763Z,7.90
2023-03-13T20:01:37.060Z,7.70
2023-03-13T20:04:08.283Z,10.10
2023-03-13T20:06:37.688Z,10.80
2023-03-13T20:09:10.108Z,10.00
2023-03-13T20:14:11.270Z,8.50
2023-03-13T20:16:40.520Z,9.60
2023-03-13T20:19:09.050Z,8.80
2023-03-13T20:21:45.271Z,8.20
2023-03-13T20:24:16.412Z,7.50
2023-03-13T20:26:44.937Z,11.20
2023-03-13T20:29:14.663Z,9.70
2023-03-13T20:31:43.130Z,8.10
2023-03-13T20:34:15.191Z,6.00
2023-03-13T20:36:43.376Z,6.70
2023-03-13T20:39:12.283Z,9.50
2023-03-13T20:41:41.111Z,9.30
2023-03-13T20:44:10.054Z,7.60
2023-03-13T20:46:38.267Z,8.60
2023-03-13T20:49:06.322Z,7.50
2023-03-13T20:51:37.407Z,9.50
2023-03-13T20:54:06.167Z,10.20
2023-03-13T20:56:34.271Z,9.30
2023-03-13T20:59:05.064Z,7.90
2023-03-13T21:01:33.393Z,8.30
2023-03-13T21:04:01.533Z,9.40
2023-03-13T21:06:30.416Z,9.30
2023-03-13T21:08:58.494Z,10.40
2023-03-13T21:11:26.662Z,7.30
2023-03-13T21:13:54.678Z,8.00
2023-03-13T21:16:24.532Z,7.60
2023-03-13T21:18:52.760Z,8.70
2023-03-13T21:21:22.796Z,7.80
2023-03-13T21:23:54.260Z,10.00
2023-03-13T21:26:22.763Z,12.70
2023-03-13T21:28:53.039Z,11.60
2023-03-13T21:31:21.359Z,6.50
2023-03-13T21:33:49.688Z,9.00
2023-03-13T21:36:21.136Z,9.40
2023-03-13T21:38:50.404Z,9.10
2023-03-13T21:41:22.108Z,9.40
2023-03-13T21:43:50.537Z,11.30
2023-03-13T21:46:19.961Z,7.20
2023-03-13T21:48:48.031Z,8.20
2023-03-13T21:51:18.648Z,9.20
2023-03-13T21:53:47.294Z,9.20
2023-03-13T21:56:16.847Z,9.40
2023-03-13T21:58:45.673Z,10.30
2023-03-13T22:01:15.325Z,7.50
2023-03-13T22:03:43.723Z,7.30
2023-03-13T22:06:14.849Z,7.30
2023-03-13T22:08:43.311Z,7.90
2023-03-13T22:11:14.691Z,7.90
2023-03-13T22:13:43.012Z,9.30
2023-03-13T22:16:11.624Z,8.10
2023-03-13T22:18:43.334Z,7.00
2023-03-13T22:21:11.724Z,10.90
2023-03-13T22:23:39.853Z,8.00
2023-03-13T22:26:07.993Z,8.00
2023-03-13T22:28:35.935Z,9.90
2023-03-13T22:31:06.568Z,8.30
2023-03-13T22:33:35.309Z,9.40
2023-03-13T22:36:04.185Z,12.90
2023-03-13T22:38:36.221Z,7.60
2023-03-13T22:41:07.622Z,9.00
2023-03-13T22:43:36.033Z,9.70
2023-03-13T22:46:04.819Z,9.40
2023-03-13T22:48:33.825Z,7.00
2023-03-13T22:51:11.384Z,7.40
2023-03-13T22:53:41.604Z,7.60
2023-03-13T22:56:11.248Z,10.10
2023-03-13T22:58:41.106Z,7.60
2023-03-13T23:01:15.950Z,8.90
2023-03-13T23:03:45.718Z,6.30
2023-03-13T23:06:25.701Z,9.70
2023-03-13T23:08:53.854Z,8.20
2023-03-13T23:11:22.134Z,7.00
2023-03-13T23:13:50.173Z,5.90
2023-03-13T23:16:18.309Z,6.10
2023-03-13T23:18:46.300Z,9.00
2023-03-13T23:21:15.647Z,6.50
2023-03-13T23:23:44.487Z,7.80
2023-03-13T23:26:15.014Z,6.60
2023-03-13T23:28:43.506Z,8.20
2023-03-13T23:31:18.180Z,6.30
2023-03-13T23:33:47.317Z,6.50
2023-03-13T23:36:18.492Z,7.20
2023-03-13T23:38:51.485Z,6.80
2023-03-13T23:41:21.108Z,7.50
2023-03-13T23:43:49.515Z,5.80
2023-03-13T23:46:20.740Z,7.00
2023-03-13T23:48:49.040Z,6.30
2023-03-13T23:51:17.073Z,6.20
2023-03-13T23:53:45.099Z,5.30
2023-03-13T23:56:13.969Z,6.80
2023-03-13T23:58:42.087Z,6.40
